createdAt,value
2022-12-18T00:06:38.083Z,77.77
2022-12-18T00:09:04.929Z,76.83
2022-12-18T00:14:04.082Z,76.59
2022-12-18T00:16:34.189Z,76.09
2022-12-18T00:19:01.376Z,76.48
2022-12-18T00:21:30.011Z,75.89
2022-12-18T00:23:57.239Z,75.39
2022-12-18T00:26:26.537Z,75.79
2022-12-18T00:28:53.988Z,76.47
2022-12-18T00:31:23.770Z,75.88
2022-12-18T00:33:55.188Z,76.08
2022-12-18T00:36:28.189Z,74.00
2022-12-18T00:38:56.479Z,75.19
2022-12-18T00:41:42.841Z,75.45
2022-12-18T00:44:12.343Z,75.19
2022-12-18T00:46:39.071Z,76.14
2022-12-18T00:49:06.039Z,75.59
2022-12-18T00:51:32.642Z,74.95
2022-12-18T00:53:59.465Z,74.78
2022-12-18T00:56:26.145Z,74.97
2022-12-18T00:58:53.267Z,74.92
2022-12-18T01:01:20.966Z,75.41
2022-12-18T01:06:26.040Z,74.92
2022-12-18T01:08:52.674Z,74.76
2022-12-18T01:11:21.324Z,74.87
2022-12-18T01:13:48.342Z,74.67
2022-12-18T01:16:17.512Z,75.35
2022-12-18T01:18:44.158Z,74.58
2022-12-18T01:21:13.430Z,74.58
2022-12-18T01:23:40.708Z,73.99
2022-12-18T01:26:12.950Z,74.77
2022-12-18T01:28:41.079Z,74.53
2022-12-18T01:31:22.316Z,74.34
2022-12-18T01:33:49.511Z,75.09
2022-12-18T01:36:28.024Z,76.13
2022-12-18T01:38:54.949Z,75.97
2022-12-18T01:41:25.126Z,76.64
2022-12-18T01:43:55.341Z,76.72
2022-12-18T01:46:24.433Z,76.68
2022-12-18T01:48:57.231Z,76.27
2022-12-18T01:51:25.401Z,76.30
2022-12-18T01:53:52.152Z,76.34
2022-12-18T01:56:20.935Z,75.72
2022-12-18T01:58:55.145Z,75.17
2022-12-18T02:01:26.361Z,75.05
2022-12-18T02:03:53.590Z,75.77
2022-12-18T02:06:42.499Z,75.72
2022-12-18T02:09:16.675Z,75.05
2022-12-18T02:11:46.290Z,74.76
2022-12-18T02:14:15.888Z,75.20
2022-12-18T02:16:54.184Z,74.38
2022-12-18T02:19:57.963Z,75.07
2022-12-18T02:22:53.176Z,74.62
2022-12-18T02:25:22.463Z,74.29
2022-12-18T02:27:51.395Z,74.87
2022-12-18T02:30:19.102Z,75.01
2022-12-18T02:32:51.814Z,75.75
2022-12-18T02:35:24.114Z,75.52
2022-12-18T02:37:51.218Z,75.41
2022-12-18T02:40:20.173Z,75.07
2022-12-18T02:45:18.275Z,75.34
2022-12-18T02:47:47.466Z,75.39
2022-12-18T02:50:19.746Z,75.08
2022-12-18T02:52:46.376Z,74.96
2022-12-18T02:55:31.546Z,74.44
2022-12-18T02:58:17.063Z,74.93
2022-12-18T03:00:55.762Z,74.55
2022-12-18T03:03:31.409Z,74.69
2022-12-18T03:06:02.925Z,75.55
2022-12-18T03:08:35.478Z,75.97
2022-12-18T03:11:09.143Z,75.42
2022-12-18T03:13:52.016Z,75.70
2022-12-18T03:16:27.082Z,76.29
2022-12-18T03:21:54.397Z,76.03
2022-12-18T03:24:22.770Z,75.78
2022-12-18T03:26:53.965Z,75.66
2022-12-18T03:29:28.553Z,74.96
2022-12-18T03:32:02.254Z,75.00
2022-12-18T03:34:33.552Z,74.80
2022-12-18T03:37:00.415Z,74.52
2022-12-18T03:39:27.099Z,74.07
2022-12-18T03:42:09.792Z,74.25
2022-12-18T03:44:41.236Z,74.49
2022-12-18T03:47:17.897Z,74.98
2022-12-18T03:50:12.480Z,75.39
2022-12-18T03:52:46.492Z,76.41
2022-12-18T03:55:13.967Z,76.32
2022-12-18T03:57:42.716Z,76.01
2022-12-18T04:00:13.979Z,75.19
2022-12-18T04:02:46.078Z,75.74
2022-12-18T04:05:15.503Z,75.39
2022-12-18T04:07:43.218Z,75.55
2022-12-18T04:10:11.441Z,74.65
2022-12-18T04:12:38.613Z,75.05
2022-12-18T04:15:06.401Z,74.65
2022-12-18T04:17:33.130Z,74.84
2022-12-18T04:19:59.818Z,74.88
2022-12-18T04:22:26.536Z,75.26
2022-12-18T04:24:53.120Z,76.05
2022-12-18T04:27:19.949Z,75.96
2022-12-18T04:29:46.536Z,76.24
2022-12-18T04:32:13.264Z,76.47
2022-12-18T04:34:39.949Z,76.97
2022-12-18T04:37:06.635Z,77.73
2022-12-18T04:39:33.345Z,77.27
2022-12-18T04:42:01.299Z,76.95
2022-12-18T04:44:27.923Z,76.96
2022-12-18T04:49:26.084Z,77.72
2022-12-18T04:51:54.076Z,77.35
2022-12-18T04:56:54.917Z,77.04
2022-12-18T04:59:21.858Z,76.70
2022-12-18T05:01:48.738Z,76.57
2022-12-18T05:04:15.552Z,76.88
2022-12-18T05:06:42.361Z,76.44
2022-12-18T05:09:09.095Z,76.67
2022-12-18T05:11:36.557Z,76.97
2022-12-18T05:16:35.064Z,77.30
2022-12-18T05:19:01.665Z,77.06
2022-12-18T05:21:28.308Z,77.56
2022-12-18T05:23:55.107Z,77.23
2022-12-18T05:26:21.758Z,77.00
2022-12-18T05:28:48.467Z,76.80
2022-12-18T05:31:15.433Z,76.84
2022-12-18T05:33:42.622Z,76.56
2022-12-18T05:36:10.147Z,76.16
2022-12-18T05:38:39.590Z,75.94
2022-12-18T05:41:07.287Z,75.40
2022-12-18T05:43:37.150Z,75.21
2022-12-18T05:46:08.597Z,75.26
2022-12-18T05:48:35.484Z,75.26
2022-12-18T05:51:11.658Z,76.14
2022-12-18T05:53:39.025Z,76.14
2022-12-18T05:56:08.813Z,75.83
2022-12-18T05:58:35.548Z,75.67
2022-12-18T06:01:11.039Z,75.92
2022-12-18T06:03:37.825Z,76.75
2022-12-18T06:06:04.621Z,77.73
2022-12-18T06:08:31.312Z,78.03
2022-12-18T06:10:57.980Z,77.72
2022-12-18T06:13:24.687Z,77.95
2022-12-18T06:15:51.435Z,77.67
2022-12-18T06:18:18.173Z,78.26
2022-12-18T06:20:44.821Z,78.78
2022-12-18T06:23:11.468Z,78.94
2022-12-18T06:25:40.135Z,79.10
2022-12-18T06:28:06.817Z,78.58
2022-12-18T06:30:33.511Z,76.66
2022-12-18T06:33:00.159Z,76.04
2022-12-18T06:35:26.802Z,75.58
2022-12-18T06:37:53.482Z,75.39
2022-12-18T06:40:20.303Z,75.09
2022-12-18T06:42:46.901Z,74.93
2022-12-18T06:45:16.279Z,74.87
2022-12-18T06:47:43.026Z,74.74
2022-12-18T06:50:09.905Z,74.82
2022-12-18T06:52:36.658Z,75.39
2022-12-18T06:55:03.729Z,76.11
2022-12-18T06:57:30.374Z,75.00
2022-12-18T06:59:57.059Z,75.99
2022-12-18T07:02:23.835Z,76.33
2022-12-18T07:04:50.595Z,76.96
2022-12-18T07:07:17.220Z,76.27
2022-12-18T07:09:43.832Z,76.00
2022-12-18T07:14:45.542Z,74.61
2022-12-18T07:17:12.331Z,74.70
2022-12-18T07:19:39.035Z,74.18
2022-12-18T07:27:17.151Z,74.75
2022-12-18T07:29:43.871Z,75.04
2022-12-18T07:32:10.592Z,75.19
2022-12-18T07:34:37.474Z,74.96
2022-12-18T07:37:04.290Z,74.44
2022-12-18T07:39:30.937Z,74.58
2022-12-18T07:42:16.047Z,74.43
2022-12-18T07:44:43.021Z,73.75
2022-12-18T07:47:12.203Z,74.15
2022-12-18T07:49:39.238Z,74.65
2022-12-18T07:52:05.976Z,74.56
2022-12-18T07:54:32.613Z,74.31
2022-12-18T07:56:59.250Z,74.55
2022-12-18T07:59:26.098Z,75.27
2022-12-18T08:01:52.850Z,75.87
2022-12-18T08:04:19.691Z,76.83
2022-12-18T08:06:48.228Z,77.87
2022-12-18T08:09:15.335Z,77.27
2022-12-18T08:11:42.235Z,77.98
2022-12-18T08:14:08.973Z,78.50
2022-12-18T08:16:35.852Z,80.14
2022-12-18T08:19:02.737Z,77.69
2022-12-18T08:21:31.741Z,78.58
2022-12-18T08:24:00.687Z,77.33
2022-12-18T08:26:30.968Z,76.79
2022-12-18T08:28:59.139Z,77.09
2022-12-18T08:31:28.466Z,76.83
2022-12-18T08:33:55.482Z,76.39
2022-12-18T08:36:22.963Z,76.20
2022-12-18T08:38:50.030Z,78.07
2022-12-18T08:41:18.592Z,77.86
2022-12-18T08:46:44.861Z,77.50
2022-12-18T08:49:12.987Z,78.60
2022-12-18T08:51:40.594Z,77.51
2022-12-18T08:54:07.865Z,87.51
2022-12-18T08:56:35.356Z,78.68
2022-12-18T08:59:02.824Z,78.35
2022-12-18T09:01:29.767Z,78.20
2022-12-18T09:03:56.579Z,78.28
2022-12-18T09:06:24.650Z,79.10
2022-12-18T09:08:51.473Z,78.39
2022-12-18T09:11:28.574Z,78.15
2022-12-18T09:13:56.517Z,78.26
2022-12-18T09:16:31.517Z,78.47
2022-12-18T09:19:02.870Z,78.18
2022-12-18T09:21:33.940Z,78.49
2022-12-18T09:24:03.782Z,77.86
2022-12-18T09:26:31.660Z,76.92
2022-12-18T09:31:35.695Z,74.95
2022-12-18T09:34:02.401Z,74.78
2022-12-18T09:36:29.066Z,73.13
2022-12-18T09:38:55.859Z,73.64
2022-12-18T09:41:43.652Z,75.39
2022-12-18T09:47:25.209Z,76.60
2022-12-18T09:52:46.548Z,76.73
2022-12-18T09:55:37.530Z,77.21
2022-12-18T09:58:16.659Z,79.21
2022-12-18T10:00:43.530Z,79.72
2022-12-18T10:03:13.546Z,80.39
2022-12-18T10:05:49.274Z,80.19
2022-12-18T10:08:40.095Z,80.81
2022-12-18T10:11:20.928Z,82.70
2022-12-18T10:13:58.281Z,83.26
2022-12-18T10:17:06.798Z,83.22
2022-12-18T10:19:39.010Z,83.24
2022-12-18T10:22:23.490Z,82.85
2022-12-18T10:25:02.312Z,84.47
2022-12-18T10:30:05.696Z,82.38
2022-12-18T10:32:34.077Z,83.15
2022-12-18T10:35:01.312Z,82.40
2022-12-18T10:37:30.277Z,82.70
2022-12-18T10:40:21.841Z,81.94
2022-12-18T10:43:05.097Z,82.09
2022-12-18T10:45:31.721Z,81.77
2022-12-18T10:51:09.581Z,81.95
2022-12-18T10:53:31.822Z,81.80
2022-12-18T10:56:01.166Z,80.86
2022-12-18T10:58:30.827Z,80.89
2022-12-18T11:01:05.595Z,80.23
2022-12-18T11:07:04.406Z,80.12
2022-12-18T11:09:33.003Z,79.78
2022-12-18T11:12:02.340Z,79.10
2022-12-18T11:14:47.166Z,78.97
2022-12-18T11:17:31.000Z,78.71
2022-12-18T11:20:16.066Z,78.51
2022-12-18T11:22:42.812Z,78.17
2022-12-18T11:28:03.489Z,83.18
2022-12-18T11:30:38.074Z,78.52
2022-12-18T11:33:14.264Z,78.27
2022-12-18T11:35:43.680Z,78.64
2022-12-18T11:38:25.177Z,78.57
2022-12-18T11:41:01.475Z,77.71
2022-12-18T11:43:39.871Z,77.89
2022-12-18T11:46:19.820Z,77.60
2022-12-18T11:48:57.954Z,77.59
2022-12-18T11:51:34.048Z,78.54
2022-12-18T11:54:03.102Z,78.27
2022-12-18T11:56:37.352Z,77.45
2022-12-18T11:59:43.574Z,76.11
2022-12-18T12:02:26.550Z,75.95
2022-12-18T12:05:17.737Z,76.29
2022-12-18T12:07:48.949Z,76.26
2022-12-18T12:10:27.515Z,75.93
2022-12-18T12:13:06.116Z,77.04
2022-12-18T12:15:50.538Z,76.09
2022-12-18T12:18:47.244Z,76.44
2022-12-18T12:21:34.476Z,75.76
2022-12-18T12:24:39.674Z,76.07
2022-12-18T12:27:33.865Z,75.87
2022-12-18T12:30:10.536Z,75.54
2022-12-18T12:32:49.297Z,76.33
2022-12-18T12:35:37.054Z,75.57
2022-12-18T12:38:32.162Z,75.25
2022-12-18T12:41:28.261Z,74.91
2022-12-18T12:43:59.573Z,75.84
2022-12-18T12:46:27.549Z,74.46
2022-12-18T12:51:41.761Z,74.54
2022-12-18T12:54:24.426Z,76.00
2022-12-18T12:56:55.320Z,75.35
2022-12-18T12:59:59.220Z,75.38
2022-12-18T13:02:52.199Z,74.43
2022-12-18T13:05:45.745Z,74.95
2022-12-18T13:08:28.651Z,74.63
2022-12-18T13:11:20.365Z,75.07
2022-12-18T13:13:56.231Z,74.95
2022-12-18T13:16:28.402Z,75.80
2022-12-18T13:18:59.929Z,75.15
2022-12-18T13:21:34.997Z,74.39
2022-12-18T13:24:23.851Z,75.21
2022-12-18T13:26:51.015Z,75.52
2022-12-18T13:29:44.059Z,75.33
2022-12-18T13:35:39.651Z,74.37
2022-12-18T13:41:20.222Z,78.94
2022-12-18T13:43:49.500Z,75.59
2022-12-18T13:46:44.303Z,73.96
2022-12-18T13:49:14.384Z,74.24
2022-12-18T13:51:54.631Z,74.59
2022-12-18T13:54:30.432Z,75.06
2022-12-18T13:56:57.135Z,74.31
2022-12-18T13:59:26.135Z,75.51
2022-12-18T14:01:58.761Z,75.99
2022-12-18T14:04:29.145Z,76.41
2022-12-18T14:07:04.723Z,76.29
2022-12-18T14:09:37.138Z,76.53
2022-12-18T14:12:25.497Z,75.91
2022-12-18T14:14:55.294Z,74.70
2022-12-18T14:17:24.085Z,75.17
2022-12-18T14:19:52.328Z,74.88
2022-12-18T14:22:20.697Z,75.22
2022-12-18T14:24:48.130Z,75.78
2022-12-18T14:27:26.531Z,74.96
2022-12-18T14:29:53.150Z,75.55
2022-12-18T14:32:21.570Z,75.93
2022-12-18T14:34:50.849Z,75.75
2022-12-18T14:37:22.310Z,84.55
2022-12-18T14:42:38.194Z,75.45
2022-12-18T14:45:42.138Z,76.51
2022-12-18T14:48:23.421Z,76.49
2022-12-18T14:50:57.915Z,77.03
2022-12-18T14:53:33.368Z,77.74
2022-12-18T14:56:00.046Z,77.73
2022-12-18T14:58:27.198Z,77.33
2022-12-18T15:00:55.751Z,77.52
2022-12-18T15:03:23.051Z,78.33
2022-12-18T15:05:50.075Z,77.95
2022-12-18T15:08:35.236Z,78.70
2022-12-18T15:11:02.713Z,79.14
2022-12-18T15:13:30.014Z,79.12
2022-12-18T15:16:04.003Z,78.87
2022-12-18T15:18:42.669Z,79.23
2022-12-18T15:21:11.555Z,80.62
2022-12-18T15:23:48.902Z,78.18
2022-12-18T15:26:19.202Z,77.93
2022-12-18T15:28:49.059Z,78.61
2022-12-18T15:31:17.748Z,78.90
2022-12-18T15:33:54.181Z,78.76
2022-12-18T15:36:26.295Z,79.74
2022-12-18T15:38:55.185Z,80.10
2022-12-18T15:41:25.055Z,79.81
2022-12-18T15:43:53.536Z,80.21
2022-12-18T15:46:22.723Z,80.49
2022-12-18T15:49:01.184Z,80.47
2022-12-18T15:51:30.259Z,80.94
2022-12-18T15:53:59.672Z,80.26
2022-12-18T15:56:46.531Z,80.45
2022-12-18T15:59:18.974Z,80.32
2022-12-18T16:01:48.292Z,79.86
2022-12-18T16:04:17.312Z,80.02
2022-12-18T16:07:13.383Z,79.73
2022-12-18T16:09:31.078Z,79.41
2022-12-18T16:11:57.953Z,79.15
2022-12-18T16:14:30.203Z,79.45
2022-12-18T16:17:03.256Z,96.74
2022-12-18T16:19:30.810Z,81.90
2022-12-18T16:21:59.422Z,82.08
2022-12-18T16:24:31.322Z,77.62
2022-12-18T16:27:00.397Z,74.77
2022-12-18T16:29:28.907Z,76.72
2022-12-18T16:31:56.969Z,75.87
2022-12-18T16:34:28.670Z,76.83
2022-12-18T16:37:05.182Z,76.33
2022-12-18T16:39:34.315Z,76.67
2022-12-18T16:42:21.939Z,77.59
2022-12-18T16:44:49.908Z,77.69
2022-12-18T16:47:17.790Z,78.73
2022-12-18T16:49:51.811Z,79.09
2022-12-18T16:52:18.995Z,79.36
2022-12-18T16:57:18.655Z,79.68
2022-12-18T16:59:45.894Z,79.37
2022-12-18T17:02:17.327Z,79.94
2022-12-18T17:04:46.674Z,79.18
2022-12-18T17:07:14.304Z,79.18
2022-12-18T17:09:40.992Z,79.51
2022-12-18T17:14:39.505Z,79.91
2022-12-18T17:17:23.125Z,84.12
2022-12-18T17:19:52.017Z,79.26
2022-12-18T17:22:18.752Z,79.45
2022-12-18T17:24:46.843Z,79.87
2022-12-18T17:27:13.474Z,80.03
2022-12-18T17:29:45.369Z,79.68
2022-12-18T17:32:13.811Z,80.14
2022-12-18T17:34:40.935Z,80.04
2022-12-18T17:37:08.008Z,79.51
2022-12-18T17:39:34.812Z,80.63
2022-12-18T17:42:01.515Z,80.57
2022-12-18T17:44:28.328Z,80.84
2022-12-18T17:46:55.312Z,80.85
2022-12-18T17:49:22.324Z,80.65
2022-12-18T17:54:27.460Z,80.99
2022-12-18T17:56:54.087Z,81.26
2022-12-18T17:59:20.820Z,81.37
2022-12-18T18:01:47.599Z,81.59
2022-12-18T18:04:14.635Z,81.92
2022-12-18T18:06:41.534Z,81.79
2022-12-18T18:09:16.345Z,81.77
2022-12-18T18:12:03.723Z,81.63
2022-12-18T18:14:31.030Z,81.51
2022-12-18T18:17:03.804Z,81.71
2022-12-18T18:19:31.263Z,82.03
2022-12-18T18:21:57.891Z,86.04
2022-12-18T18:24:25.882Z,80.71
2022-12-18T18:26:52.639Z,80.43
2022-12-18T18:29:24.090Z,80.87
2022-12-18T18:31:53.352Z,81.27
2022-12-18T18:34:29.259Z,80.92
2022-12-18T18:36:55.946Z,81.14
2022-12-18T18:39:22.750Z,81.85
2022-12-18T18:41:49.425Z,81.38
2022-12-18T18:44:17.790Z,80.74
2022-12-18T18:46:44.778Z,81.01
2022-12-18T18:49:11.966Z,80.63
2022-12-18T18:51:38.551Z,80.81
2022-12-18T18:54:05.372Z,80.63
2022-12-18T18:59:19.542Z,80.88
2022-12-18T19:01:52.991Z,80.96
2022-12-18T19:04:19.786Z,80.68
2022-12-18T19:06:47.893Z,80.53
2022-12-18T19:09:15.568Z,80.57
2022-12-18T19:12:01.069Z,80.06
2022-12-18T19:17:06.718Z,80.45
2022-12-18T19:19:33.346Z,81.10
2022-12-18T19:22:00.186Z,80.41
2022-12-18T19:24:27.076Z,80.33
2022-12-18T19:29:27.620Z,80.56
2022-12-18T19:31:54.533Z,80.06
2022-12-18T19:34:21.237Z,80.79
2022-12-18T19:36:47.880Z,79.74
2022-12-18T19:39:17.110Z,79.94
2022-12-18T19:41:44.704Z,79.49
2022-12-18T19:44:13.843Z,80.31
2022-12-18T19:46:42.439Z,80.35
2022-12-18T19:49:10.618Z,80.20
2022-12-18T19:51:38.209Z,85.47
2022-12-18T19:54:05.229Z,80.36
2022-12-18T19:56:34.265Z,80.01
2022-12-18T19:59:02.133Z,80.74
2022-12-18T20:01:29.793Z,81.32
2022-12-18T20:03:58.267Z,81.04
2022-12-18T20:06:26.300Z,81.16
2022-12-18T20:08:59.436Z,81.25
2022-12-18T20:11:27.656Z,81.11
2022-12-18T20:13:54.307Z,81.00
2022-12-18T20:16:21.120Z,81.57
2022-12-18T20:18:49.381Z,81.65
2022-12-18T20:21:16.261Z,81.50
2022-12-18T20:23:43.614Z,81.74
2022-12-18T20:26:10.816Z,81.16
2022-12-18T20:28:37.872Z,80.91
2022-12-18T20:31:13.395Z,81.34
2022-12-18T20:33:41.637Z,81.41
2022-12-18T20:36:13.359Z,81.81
2022-12-18T20:38:41.029Z,81.35
2022-12-18T20:41:16.630Z,81.35
2022-12-18T20:43:43.742Z,81.41
2022-12-18T20:46:13.673Z,81.17
2022-12-18T20:48:40.971Z,81.01
2022-12-18T20:51:11.760Z,81.34
2022-12-18T20:56:21.504Z,81.82
2022-12-18T20:58:50.375Z,81.25
2022-12-18T21:01:21.154Z,80.70
2022-12-18T21:03:51.305Z,81.11
2022-12-18T21:06:20.580Z,81.37
2022-12-18T21:08:47.906Z,81.36
2022-12-18T21:11:39.055Z,81.61
2022-12-18T21:14:15.993Z,80.99
2022-12-18T21:16:44.047Z,81.10
2022-12-18T21:19:18.826Z,81.03
2022-12-18T21:24:17.802Z,81.39
2022-12-18T21:26:46.430Z,81.11
2022-12-18T21:29:16.386Z,80.52
2022-12-18T21:31:44.514Z,80.29
2022-12-18T21:34:44.707Z,80.53
2022-12-18T21:37:14.561Z,80.75
2022-12-18T21:39:41.154Z,80.04
2022-12-18T21:44:57.716Z,80.28
2022-12-18T21:47:24.340Z,80.39
2022-12-18T21:49:53.134Z,80.19
2022-12-18T21:52:31.757Z,80.17
2022-12-18T21:55:06.283Z,79.16
2022-12-18T21:57:35.954Z,79.58
2022-12-18T22:02:34.709Z,79.61
2022-12-18T22:07:39.020Z,79.08
2022-12-18T22:10:06.043Z,79.50
2022-12-18T22:12:35.786Z,79.88
2022-12-18T22:15:11.257Z,78.72
2022-12-18T22:17:39.404Z,78.06
2022-12-18T22:20:06.574Z,78.66
2022-12-18T22:22:33.199Z,78.90
2022-12-18T22:24:59.826Z,78.20
2022-12-18T22:27:26.396Z,77.78
2022-12-18T22:30:05.109Z,77.58
2022-12-18T22:32:36.071Z,77.75
2022-12-18T22:35:10.440Z,77.73
2022-12-18T22:37:40.955Z,77.64
2022-12-18T22:40:08.623Z,77.52
2022-12-18T22:42:35.524Z,77.87
2022-12-18T22:45:02.312Z,77.38
2022-12-18T22:47:30.483Z,77.80
2022-12-18T22:49:58.085Z,78.58
2022-12-18T22:52:25.291Z,78.46
2022-12-18T22:54:53.526Z,77.42
2022-12-18T22:57:24.571Z,78.36
2022-12-18T22:59:51.672Z,78.56
2022-12-18T23:02:19.296Z,78.67
2022-12-18T23:04:46.233Z,78.84
2022-12-18T23:07:13.095Z,78.75
2022-12-18T23:09:40.066Z,79.19
2022-12-18T23:12:07.395Z,77.60
2022-12-18T23:14:34.417Z,77.93
2022-12-18T23:19:32.424Z,77.44
2022-12-18T23:21:59.256Z,77.33
2022-12-18T23:24:26.296Z,77.40
2022-12-18T23:26:52.962Z,78.22
2022-12-18T23:29:19.626Z,77.83
2022-12-18T23:31:46.837Z,77.16
2022-12-18T23:34:14.986Z,77.62
2022-12-18T23:36:46.327Z,78.11
2022-12-18T23:41:47.928Z,77.98
2022-12-18T23:44:14.610Z,78.30
2022-12-18T23:46:41.317Z,78.51
2022-12-18T23:49:08.030Z,77.72
2022-12-18T23:51:34.672Z,77.54
2022-12-18T23:54:02.851Z,78.32
2022-12-18T23:56:30.195Z,78.72
2022-12-18T23:58:57.197Z,78.80
